createdAt,value
2022-07-27T00:01:51.227Z,100.00
2022-07-27T00:04:21.758Z,100.00
2022-07-27T00:06:49.034Z,100.00
2022-07-27T00:09:18.343Z,100.00
2022-07-27T00:11:46.469Z,100.00
2022-07-27T00:14:13.479Z,100.00
2022-07-27T00:16:40.468Z,100.00
2022-07-27T00:19:09.148Z,100.00
2022-07-27T00:21:44.827Z,100.00
2022-07-27T00:24:13.343Z,100.00
2022-07-27T00:26:40.168Z,100.00
2022-07-27T00:29:07.097Z,100.00
2022-07-27T00:31:34.062Z,100.00
2022-07-27T00:34:01.008Z,100.00
2022-07-27T00:36:27.962Z,100.00
2022-07-27T00:38:54.848Z,100.00
2022-07-27T00:41:21.762Z,100.00
2022-07-27T00:43:55.938Z,100.00
2022-07-27T00:46:24.291Z,100.00
2022-07-27T00:48:51.888Z,100.00
2022-07-27T00:51:20.550Z,100.00
2022-07-27T00:53:48.666Z,100.00
2022-07-27T00:56:16.363Z,100.00
2022-07-27T00:58:47.383Z,100.00
2022-07-27T01:01:14.814Z,100.00
2022-07-27T01:03:41.648Z,100.00
2022-07-27T01:06:08.854Z,100.00
2022-07-27T01:08:36.878Z,100.00
2022-07-27T01:11:04.460Z,100.00
2022-07-27T01:13:31.546Z,100.00
2022-07-27T01:15:59.213Z,100.00
2022-07-27T01:18:35.145Z,100.00
2022-07-27T01:21:04.816Z,100.00
2022-07-27T01:23:34.449Z,100.00
2022-07-27T01:26:02.137Z,100.00
2022-07-27T01:28:29.122Z,100.00
2022-07-27T01:30:56.368Z,100.00
2022-07-27T01:33:26.117Z,100.00
2022-07-27T01:35:57.318Z,100.00
2022-07-27T01:38:24.291Z,100.00
2022-07-27T01:40:52.341Z,100.00
2022-07-27T01:43:19.454Z,100.00
2022-07-27T01:45:46.375Z,100.00
2022-07-27T01:48:13.329Z,100.00
2022-07-27T01:50:40.579Z,100.00
2022-07-27T01:53:11.732Z,100.00
2022-07-27T01:55:39.351Z,100.00
2022-07-27T01:58:07.508Z,100.00
2022-07-27T02:00:35.239Z,100.00
2022-07-27T02:03:04.273Z,100.00
2022-07-27T02:05:31.342Z,100.00
2022-07-27T02:07:58.272Z,100.00
2022-07-27T02:10:25.279Z,100.00
2022-07-27T02:12:52.517Z,100.00
2022-07-27T02:15:22.621Z,100.00
2022-07-27T02:17:53.145Z,100.00
2022-07-27T02:20:22.561Z,100.00
2022-07-27T02:22:50.816Z,100.00
2022-07-27T02:25:19.207Z,100.00
2022-07-27T02:27:47.562Z,100.00
2022-07-27T02:30:17.801Z,100.00
2022-07-27T02:32:46.337Z,100.00
2022-07-27T02:35:19.224Z,100.00
2022-07-27T02:37:48.474Z,100.00
2022-07-27T02:40:19.397Z,100.00
2022-07-27T02:42:47.126Z,100.00
2022-07-27T02:45:17.396Z,100.00
2022-07-27T02:47:44.987Z,100.00
2022-07-27T02:50:12.344Z,100.00
2022-07-27T02:52:39.572Z,100.00
2022-07-27T02:55:07.605Z,100.00
2022-07-27T02:57:37.784Z,100.00
2022-07-27T03:00:07.603Z,100.00
2022-07-27T03:02:34.449Z,100.00
2022-07-27T03:05:01.333Z,100.00
2022-07-27T03:07:28.284Z,100.00
2022-07-27T03:09:55.132Z,100.00
2022-07-27T03:12:21.960Z,100.00
2022-07-27T03:14:48.817Z,100.00
2022-07-27T03:17:15.623Z,100.00
2022-07-27T03:19:42.462Z,100.00
2022-07-27T03:22:09.542Z,100.00
2022-07-27T03:24:36.564Z,100.00
2022-07-27T03:27:03.464Z,100.00
2022-07-27T03:29:30.280Z,100.00
2022-07-27T03:31:57.137Z,100.00
2022-07-27T03:34:26.430Z,100.00
2022-07-27T03:36:53.227Z,100.00
2022-07-27T03:39:20.067Z,100.00
2022-07-27T03:41:46.861Z,100.00
2022-07-27T03:44:13.701Z,100.00
2022-07-27T03:46:40.542Z,100.00
2022-07-27T03:49:14.824Z,100.00
2022-07-27T03:51:42.547Z,100.00
2022-07-27T03:54:09.549Z,100.00
2022-07-27T03:56:36.434Z,100.00
2022-07-27T03:59:03.364Z,100.00
2022-07-27T04:01:31.066Z,100.00
2022-07-27T04:03:58.019Z,100.00
2022-07-27T04:06:25.721Z,100.00
2022-07-27T04:08:57.502Z,100.00
2022-07-27T04:11:26.668Z,100.00
2022-07-27T04:13:56.543Z,100.00
2022-07-27T04:16:24.373Z,100.00
2022-07-27T04:18:56.055Z,100.00
2022-07-27T04:21:22.918Z,100.00
2022-07-27T04:23:54.334Z,100.00
2022-07-27T04:26:21.149Z,100.00
2022-07-27T04:28:47.956Z,100.00
2022-07-27T04:31:14.967Z,100.00
2022-07-27T04:33:41.845Z,100.00
2022-07-27T04:36:09.431Z,100.00
2022-07-27T04:38:36.578Z,100.00
2022-07-27T04:41:03.425Z,100.00
2022-07-27T04:43:30.264Z,100.00
2022-07-27T04:45:57.209Z,100.00
2022-07-27T04:48:24.109Z,100.00
2022-07-27T04:50:51.841Z,100.00
2022-07-27T04:53:18.796Z,100.00
2022-07-27T04:55:46.541Z,100.00
2022-07-27T04:58:14.722Z,100.00
2022-07-27T05:00:42.963Z,100.00
2022-07-27T05:03:11.000Z,100.00
2022-07-27T05:05:38.050Z,100.00
2022-07-27T05:08:05.278Z,100.00
2022-07-27T05:10:32.230Z,100.00
2022-07-27T05:12:59.222Z,100.00
2022-07-27T05:15:26.202Z,100.00
2022-07-27T05:17:53.667Z,100.00
2022-07-27T05:20:20.678Z,100.00
2022-07-27T05:22:47.647Z,100.00
2022-07-27T05:25:14.524Z,100.00
2022-07-27T05:27:53.923Z,100.00
2022-07-27T05:30:23.949Z,100.00
2022-07-27T05:32:50.898Z,100.00
2022-07-27T05:35:17.808Z,100.00
2022-07-27T05:37:44.625Z,100.00
2022-07-27T05:40:12.316Z,100.00
2022-07-27T05:42:41.759Z,100.00
2022-07-27T05:45:09.566Z,100.00
2022-07-27T05:47:36.617Z,100.00
2022-07-27T05:50:04.138Z,100.00
2022-07-27T05:52:31.126Z,100.00
2022-07-27T05:54:57.937Z,100.00
2022-07-27T05:57:24.866Z,100.00
2022-07-27T05:59:54.575Z,100.00
2022-07-27T06:02:25.341Z,100.00
2022-07-27T06:04:53.596Z,100.00
2022-07-27T06:07:39.894Z,100.00
2022-07-27T06:10:08.722Z,100.00
2022-07-27T06:12:40.510Z,100.00
2022-07-27T06:15:09.114Z,100.00
2022-07-27T06:17:36.538Z,100.00
2022-07-27T06:20:08.072Z,100.00
2022-07-27T06:23:09.097Z,100.00
2022-07-27T06:25:36.257Z,100.00
2022-07-27T06:28:04.563Z,100.00
2022-07-27T06:30:31.911Z,100.00
2022-07-27T06:32:59.644Z,100.00
2022-07-27T06:35:26.752Z,100.00
2022-07-27T06:37:54.127Z,100.00
2022-07-27T06:40:21.515Z,100.00
2022-07-27T06:42:48.842Z,100.00
2022-07-27T06:45:16.730Z,100.00
2022-07-27T06:47:49.497Z,100.00
2022-07-27T06:50:20.336Z,100.00
2022-07-27T06:52:48.105Z,100.00
2022-07-27T06:55:15.176Z,100.00
2022-07-27T06:57:42.994Z,100.00
2022-07-27T07:00:11.743Z,100.00
2022-07-27T07:02:40.254Z,100.00
2022-07-27T07:05:07.243Z,100.00
2022-07-27T07:07:34.110Z,100.00
2022-07-27T07:10:00.962Z,100.00
2022-07-27T07:12:28.514Z,100.00
2022-07-27T07:14:55.408Z,100.00
2022-07-27T07:17:22.283Z,100.00
2022-07-27T07:19:49.448Z,100.00
2022-07-27T07:22:16.291Z,100.00
2022-07-27T07:24:43.177Z,100.00
2022-07-27T07:27:10.066Z,100.00
2022-07-27T07:29:36.963Z,100.00
2022-07-27T07:32:03.880Z,100.00
2022-07-27T07:34:30.742Z,100.00
2022-07-27T07:36:58.166Z,100.00
2022-07-27T07:39:31.013Z,100.00
2022-07-27T07:41:58.462Z,100.00
2022-07-27T07:44:25.534Z,100.00
2022-07-27T07:46:52.511Z,100.00
2022-07-27T07:49:21.717Z,100.00
2022-07-27T07:52:06.552Z,100.00
2022-07-27T07:54:33.567Z,100.00
2022-07-27T07:57:00.829Z,100.00
2022-07-27T07:59:27.690Z,100.00
2022-07-27T08:01:54.643Z,100.00
2022-07-27T08:04:21.493Z,100.00
2022-07-27T08:06:48.405Z,100.00
2022-07-27T08:09:17.035Z,100.00
2022-07-27T08:11:44.488Z,100.00
2022-07-27T08:14:11.335Z,100.00
2022-07-27T08:16:38.915Z,100.00
2022-07-27T08:19:06.016Z,100.00
2022-07-27T08:21:36.386Z,100.00
2022-07-27T08:24:03.405Z,100.00
2022-07-27T08:26:30.311Z,100.00
2022-07-27T08:28:57.144Z,100.00
2022-07-27T08:31:47.495Z,100.00
2022-07-27T08:34:13.231Z,100.00
2022-07-27T08:36:40.272Z,100.00
2022-07-27T08:39:08.703Z,100.00
2022-07-27T08:41:42.042Z,100.00
2022-07-27T08:44:14.176Z,100.00
2022-07-27T08:46:45.636Z,100.00
2022-07-27T08:49:13.294Z,100.00
2022-07-27T08:51:46.852Z,100.00
2022-07-27T08:54:14.303Z,100.00
2022-07-27T08:56:41.310Z,100.00
2022-07-27T08:59:08.213Z,100.00
2022-07-27T09:01:38.730Z,100.00
2022-07-27T09:04:07.729Z,100.00
2022-07-27T09:06:54.201Z,100.00
2022-07-27T09:09:22.223Z,100.00
2022-07-27T09:12:07.493Z,100.00
2022-07-27T09:14:36.522Z,100.00
2022-07-27T09:20:18.558Z,100.00
2022-07-27T09:22:53.794Z,100.00
2022-07-27T09:25:44.977Z,100.00
2022-07-27T09:28:10.667Z,100.00
2022-07-27T09:30:44.239Z,100.00
2022-07-27T09:33:15.412Z,100.00
2022-07-27T09:35:42.309Z,100.00
2022-07-27T09:38:25.414Z,100.00
2022-07-27T09:41:03.193Z,100.00
2022-07-27T09:46:36.788Z,100.00
2022-07-27T09:49:05.093Z,100.00
2022-07-27T09:51:59.290Z,100.00
2022-07-27T09:54:21.080Z,100.00
2022-07-27T09:56:58.855Z,100.00
2022-07-27T09:59:25.730Z,100.00
2022-07-27T10:01:56.379Z,100.00
2022-07-27T10:04:24.440Z,100.00
2022-07-27T10:07:02.762Z,100.00
2022-07-27T10:09:31.225Z,100.00
2022-07-27T10:11:58.472Z,100.00
2022-07-27T10:14:25.815Z,100.00
2022-07-27T10:16:57.793Z,100.00
2022-07-27T10:19:37.065Z,100.00
2022-07-27T10:22:03.887Z,100.00
2022-07-27T10:24:34.740Z,100.00
2022-07-27T10:27:20.185Z,99.25
2022-07-27T10:29:51.835Z,98.76
2022-07-27T10:32:31.514Z,100.00
2022-07-27T10:34:59.740Z,100.00
2022-07-27T10:37:34.222Z,100.00
2022-07-27T10:40:23.639Z,100.00
2022-07-27T10:42:54.453Z,100.00
2022-07-27T10:45:22.380Z,100.00
2022-07-27T10:47:52.971Z,100.00
2022-07-27T10:50:23.823Z,100.00
2022-07-27T10:52:59.687Z,100.00
2022-07-27T10:55:32.668Z,100.00
2022-07-27T10:58:14.411Z,100.00
2022-07-27T11:00:54.820Z,100.00
2022-07-27T11:03:33.075Z,100.00
2022-07-27T11:06:18.283Z,100.00
2022-07-27T11:09:17.042Z,100.00
2022-07-27T11:11:38.809Z,100.00
2022-07-27T11:14:05.934Z,100.00
2022-07-27T11:16:36.968Z,100.00
2022-07-27T11:19:18.039Z,100.00
2022-07-27T11:21:46.629Z,100.00
2022-07-27T11:24:19.312Z,100.00
2022-07-27T11:26:49.444Z,100.00
2022-07-27T11:29:18.436Z,100.00
2022-07-27T11:31:57.218Z,100.00
2022-07-27T11:34:30.334Z,100.00
2022-07-27T11:37:03.026Z,100.00
2022-07-27T11:39:59.731Z,100.00
2022-07-27T11:42:23.474Z,100.00
2022-07-27T11:44:53.123Z,100.00
2022-07-27T11:47:24.004Z,100.00
2022-07-27T11:49:51.395Z,100.00
2022-07-27T11:52:18.825Z,100.00
2022-07-27T11:54:52.420Z,100.00
2022-07-27T11:57:20.718Z,100.00
2022-07-27T11:59:47.838Z,100.00
2022-07-27T12:02:22.182Z,100.00
2022-07-27T12:04:52.341Z,100.00
2022-07-27T12:07:29.867Z,100.00
2022-07-27T12:09:58.694Z,100.00
2022-07-27T12:12:28.405Z,96.79
2022-07-27T12:15:11.652Z,100.00
2022-07-27T12:17:57.345Z,97.45
2022-07-27T12:20:32.567Z,87.21
2022-07-27T12:23:08.314Z,94.74
2022-07-27T12:25:36.323Z,86.99
2022-07-27T12:28:06.437Z,83.36
2022-07-27T12:30:33.360Z,86.22
2022-07-27T12:33:02.860Z,86.04
2022-07-27T12:35:46.089Z,87.06
2022-07-27T12:38:13.897Z,89.91
2022-07-27T12:41:00.853Z,94.68
2022-07-27T12:43:28.586Z,100.00
2022-07-27T12:45:55.794Z,100.00
2022-07-27T12:48:25.444Z,100.00
2022-07-27T12:51:06.234Z,98.90
2022-07-27T12:53:35.060Z,90.80
2022-07-27T12:56:06.492Z,87.11
2022-07-27T12:58:34.188Z,88.35
2022-07-27T13:01:01.134Z,88.62
2022-07-27T13:03:28.094Z,92.97
2022-07-27T13:05:54.991Z,100.00
2022-07-27T13:08:22.532Z,89.62
2022-07-27T13:10:53.261Z,85.60
2022-07-27T13:13:24.527Z,89.84
2022-07-27T13:15:52.117Z,93.99
2022-07-27T13:18:23.719Z,90.19
2022-07-27T13:20:51.713Z,82.58
2022-07-27T13:23:18.710Z,83.30
2022-07-27T13:25:45.532Z,83.95
2022-07-27T13:28:12.949Z,83.97
2022-07-27T13:30:40.563Z,91.95
2022-07-27T13:33:08.051Z,96.22
2022-07-27T13:35:35.128Z,85.58
2022-07-27T13:38:02.234Z,78.90
2022-07-27T13:40:29.412Z,81.57
2022-07-27T13:42:56.358Z,87.11
2022-07-27T13:45:23.652Z,78.08
2022-07-27T13:47:50.589Z,76.73
2022-07-27T13:50:19.391Z,82.10
2022-07-27T13:52:48.438Z,83.80
2022-07-27T13:55:17.427Z,73.70
2022-07-27T13:57:45.451Z,75.63
2022-07-27T14:00:13.625Z,79.83
2022-07-27T14:02:41.844Z,78.67
2022-07-27T14:05:14.290Z,77.64
2022-07-27T14:07:42.596Z,82.06
2022-07-27T14:10:28.817Z,83.77
2022-07-27T14:13:08.123Z,98.91
2022-07-27T14:15:52.817Z,87.11
2022-07-27T14:18:27.226Z,79.95
2022-07-27T14:20:56.087Z,79.53
2022-07-27T14:23:25.045Z,76.00
2022-07-27T14:25:52.715Z,66.42
2022-07-27T14:28:20.005Z,87.09
2022-07-27T14:30:47.508Z,89.92
2022-07-27T14:33:15.736Z,79.99
2022-07-27T14:35:42.799Z,77.33
2022-07-27T14:38:10.345Z,74.79
2022-07-27T14:40:38.222Z,73.48
2022-07-27T14:43:06.378Z,76.65
2022-07-27T14:45:44.769Z,81.66
2022-07-27T14:48:21.543Z,73.37
2022-07-27T14:50:55.395Z,74.68
2022-07-27T14:53:22.760Z,78.05
2022-07-27T14:55:49.712Z,77.31
2022-07-27T14:58:17.063Z,79.62
2022-07-27T15:00:44.171Z,80.89
2022-07-27T15:03:14.570Z,77.43
2022-07-27T15:05:49.598Z,75.12
2022-07-27T15:08:19.951Z,74.36
2022-07-27T15:10:47.991Z,76.24
2022-07-27T15:13:14.992Z,88.20
2022-07-27T15:15:42.064Z,86.97
2022-07-27T15:18:09.096Z,91.76
2022-07-27T15:20:36.027Z,89.71
2022-07-27T15:23:04.105Z,85.76
2022-07-27T15:25:31.125Z,81.63
2022-07-27T15:27:58.324Z,75.67
2022-07-27T15:30:25.189Z,78.86
2022-07-27T15:32:52.041Z,78.06
2022-07-27T15:35:19.137Z,76.90
2022-07-27T15:37:54.074Z,76.69
2022-07-27T15:40:38.008Z,86.77
2022-07-27T15:43:06.821Z,84.38
2022-07-27T15:45:38.471Z,85.53
2022-07-27T15:48:08.409Z,86.68
2022-07-27T15:50:36.471Z,88.47
2022-07-27T15:53:04.010Z,85.41
2022-07-27T15:55:30.836Z,89.33
2022-07-27T15:57:58.138Z,96.75
2022-07-27T16:00:25.940Z,96.17
2022-07-27T16:02:52.949Z,100.00
2022-07-27T16:05:20.841Z,99.28
2022-07-27T16:07:47.674Z,95.70
2022-07-27T16:10:14.514Z,94.88
2022-07-27T16:12:41.345Z,97.73
2022-07-27T16:15:08.689Z,96.41
2022-07-27T16:17:35.500Z,92.85
2022-07-27T16:20:02.570Z,89.33
2022-07-27T16:22:30.243Z,89.56
2022-07-27T16:24:57.190Z,88.21
2022-07-27T16:27:24.353Z,84.94
2022-07-27T16:29:51.454Z,96.98
2022-07-27T16:32:18.370Z,94.15
2022-07-27T16:34:46.132Z,96.25
2022-07-27T16:37:13.048Z,97.50
2022-07-27T16:39:39.885Z,92.06
2022-07-27T16:42:06.830Z,94.12
2022-07-27T16:44:35.512Z,100.00
2022-07-27T16:47:05.586Z,95.95
2022-07-27T16:49:36.065Z,100.00
2022-07-27T16:52:04.926Z,100.00
2022-07-27T16:54:37.162Z,100.00
2022-07-27T16:57:07.009Z,100.00
2022-07-27T16:59:34.075Z,100.00
2022-07-27T17:02:00.943Z,100.00
2022-07-27T17:04:28.162Z,100.00
2022-07-27T17:06:55.150Z,100.00
2022-07-27T17:09:22.064Z,100.00
2022-07-27T17:11:51.302Z,100.00
2022-07-27T17:14:21.394Z,100.00
2022-07-27T17:16:52.235Z,100.00
2022-07-27T17:19:19.561Z,100.00
2022-07-27T17:21:46.559Z,100.00
2022-07-27T17:24:13.653Z,100.00
2022-07-27T17:26:40.495Z,100.00
2022-07-27T17:29:07.394Z,100.00
2022-07-27T17:31:34.330Z,100.00
2022-07-27T17:34:01.389Z,100.00
2022-07-27T17:36:28.412Z,100.00
2022-07-27T17:38:55.491Z,100.00
2022-07-27T17:41:25.559Z,100.00
2022-07-27T17:43:55.383Z,100.00
2022-07-27T17:46:23.285Z,100.00
2022-07-27T17:48:51.652Z,100.00
2022-07-27T17:51:18.945Z,100.00
2022-07-27T17:53:46.745Z,100.00
2022-07-27T17:56:13.927Z,100.00
2022-07-27T17:58:42.810Z,100.00
2022-07-27T18:01:09.738Z,100.00
2022-07-27T18:03:36.734Z,100.00
2022-07-27T18:06:03.897Z,100.00
2022-07-27T18:08:31.137Z,100.00
2022-07-27T18:10:57.972Z,100.00
2022-07-27T18:13:39.023Z,100.00
2022-07-27T18:16:09.268Z,100.00
2022-07-27T18:18:37.263Z,100.00
2022-07-27T18:21:05.124Z,100.00
2022-07-27T18:23:32.728Z,100.00
2022-07-27T18:25:59.699Z,100.00
2022-07-27T18:28:26.604Z,100.00
2022-07-27T18:30:53.715Z,100.00
2022-07-27T18:33:21.090Z,100.00
2022-07-27T18:35:48.511Z,100.00
2022-07-27T18:38:16.771Z,100.00
2022-07-27T18:40:47.214Z,100.00
2022-07-27T18:43:16.039Z,100.00
2022-07-27T18:45:43.148Z,100.00
2022-07-27T18:48:10.786Z,100.00
2022-07-27T18:50:39.862Z,100.00
2022-07-27T18:53:08.343Z,100.00
2022-07-27T18:55:35.622Z,100.00
2022-07-27T18:58:02.492Z,100.00
2022-07-27T19:00:29.588Z,100.00
2022-07-27T19:02:58.024Z,100.00
2022-07-27T19:05:32.479Z,100.00
2022-07-27T19:08:13.180Z,100.00
2022-07-27T19:10:44.559Z,100.00
2022-07-27T19:13:12.022Z,100.00
2022-07-27T19:15:39.062Z,100.00
2022-07-27T19:18:07.319Z,100.00
2022-07-27T19:20:36.617Z,100.00
2022-07-27T19:23:07.373Z,100.00
2022-07-27T19:25:34.555Z,100.00
2022-07-27T19:28:02.862Z,100.00
2022-07-27T19:30:29.958Z,100.00
2022-07-27T19:32:57.083Z,100.00
2022-07-27T19:35:24.105Z,100.00
2022-07-27T19:37:50.961Z,100.00
2022-07-27T19:40:44.093Z,100.00
2022-07-27T19:43:06.026Z,100.00
2022-07-27T19:45:33.938Z,100.00
2022-07-27T19:48:01.631Z,100.00
2022-07-27T19:50:28.728Z,100.00
2022-07-27T19:52:55.578Z,100.00
2022-07-27T19:55:24.915Z,100.00
2022-07-27T19:57:52.001Z,100.00
2022-07-27T20:00:18.944Z,100.00
2022-07-27T20:02:47.841Z,100.00
2022-07-27T20:05:14.905Z,100.00
2022-07-27T20:07:43.357Z,100.00
2022-07-27T20:10:10.700Z,100.00
2022-07-27T20:12:38.265Z,100.00
2022-07-27T20:15:06.566Z,100.00
2022-07-27T20:17:36.975Z,100.00
2022-07-27T20:20:07.607Z,100.00
2022-07-27T20:22:34.453Z,100.00
2022-07-27T20:25:02.341Z,100.00
2022-07-27T20:27:29.656Z,100.00
2022-07-27T20:29:56.672Z,100.00
2022-07-27T20:32:25.857Z,100.00
2022-07-27T20:34:52.843Z,100.00
2022-07-27T20:37:20.142Z,100.00
2022-07-27T20:39:46.978Z,100.00
2022-07-27T20:42:13.809Z,100.00
2022-07-27T20:44:40.706Z,100.00
2022-07-27T20:47:08.929Z,100.00
2022-07-27T20:49:35.768Z,100.00
2022-07-27T20:52:02.606Z,100.00
2022-07-27T20:54:29.913Z,100.00
2022-07-27T20:56:58.061Z,100.00
2022-07-27T20:59:24.947Z,100.00
2022-07-27T21:01:52.836Z,100.00
2022-07-27T21:04:20.478Z,100.00
2022-07-27T21:06:47.574Z,100.00
2022-07-27T21:09:15.411Z,100.00
2022-07-27T21:11:42.618Z,100.00
2022-07-27T21:14:09.707Z,100.00
2022-07-27T21:16:37.114Z,100.00
2022-07-27T21:19:04.249Z,100.00
2022-07-27T21:21:31.141Z,100.00
2022-07-27T21:24:17.325Z,100.00
2022-07-27T21:26:50.043Z,100.00
2022-07-27T21:29:17.847Z,100.00
2022-07-27T21:31:46.682Z,100.00
2022-07-27T21:34:17.190Z,100.00
2022-07-27T21:36:45.112Z,100.00
2022-07-27T21:39:12.333Z,100.00
2022-07-27T21:41:39.450Z,100.00
2022-07-27T21:44:06.330Z,100.00
2022-07-27T21:46:33.305Z,100.00
2022-07-27T21:49:00.241Z,100.00
2022-07-27T21:51:27.249Z,100.00
2022-07-27T21:53:54.968Z,100.00
2022-07-27T21:56:21.878Z,100.00
2022-07-27T21:58:49.029Z,100.00
2022-07-27T22:01:17.018Z,100.00
2022-07-27T22:03:44.714Z,100.00
2022-07-27T22:06:12.133Z,100.00
2022-07-27T22:08:39.077Z,100.00
2022-07-27T22:11:06.195Z,100.00
2022-07-27T22:13:36.603Z,100.00
2022-07-27T22:16:04.341Z,100.00
2022-07-27T22:18:31.839Z,100.00
2022-07-27T22:20:58.686Z,100.00
2022-07-27T22:23:28.009Z,100.00
2022-07-27T22:25:55.378Z,100.00
2022-07-27T22:28:26.107Z,100.00
2022-07-27T22:31:00.061Z,100.00
2022-07-27T22:33:40.812Z,100.00
2022-07-27T22:36:12.136Z,100.00
2022-07-27T22:38:39.239Z,100.00
2022-07-27T22:41:06.127Z,100.00
2022-07-27T22:43:32.978Z,100.00
2022-07-27T22:46:00.307Z,100.00
2022-07-27T22:48:27.334Z,100.00
2022-07-27T22:50:54.285Z,100.00
2022-07-27T22:53:22.198Z,100.00
2022-07-27T22:55:49.237Z,100.00
2022-07-27T22:58:16.406Z,100.00
2022-07-27T23:00:43.361Z,100.00
2022-07-27T23:03:10.181Z,100.00
2022-07-27T23:05:37.186Z,100.00
2022-07-27T23:08:04.159Z,100.00
2022-07-27T23:10:46.055Z,100.00
2022-07-27T23:13:18.941Z,100.00
2022-07-27T23:15:46.750Z,100.00
2022-07-27T23:18:14.256Z,100.00
2022-07-27T23:20:41.344Z,100.00
2022-07-27T23:23:15.320Z,100.00
2022-07-27T23:25:44.337Z,100.00
2022-07-27T23:28:11.868Z,100.00
2022-07-27T23:30:38.853Z,100.00
2022-07-27T23:33:06.115Z,100.00
2022-07-27T23:35:33.219Z,100.00
2022-07-27T23:38:00.351Z,100.00
2022-07-27T23:40:27.946Z,100.00
2022-07-27T23:42:54.935Z,100.00
2022-07-27T23:45:22.008Z,100.00
2022-07-27T23:47:48.779Z,100.00
2022-07-27T23:50:15.759Z,100.00
2022-07-27T23:52:42.591Z,100.00
2022-07-27T23:55:09.720Z,100.00
2022-07-27T23:57:36.531Z,100.00
